• Join FlightAware (Why Join?)
  • Login
  • US Flag 
Gobble Gobble! 
08:19AM EST


 

Airport Tracker/Info


-or-


 

Live Flight TrackerFlight Track Log ✈ N820NN ✈ 29-Apr-2012 ✈ KDFW - KFLL

Flight Track Log - Related Links

Times and Time Zones

All times are in EDT time to prevent confusion due to time zone crossing. See the N820NN flight status page for this flight to view local times or setup timezone preferences in your user account.

Time Position Orientation Groundspeed Altitude Reporting Facility
EDT Latitude Longitude Course Direction KTS MPH feet Rate Location/Type
11:28AM 32.8665 -97.0318 167° South  Level FlightAware Approximate
11:29AM 32.8410 -96.8875 244° Southwest  Level FlightAware Approximate
11:30AM 32.8154 -96.7432 264° West  Level FlightAware Approximate
11:31AM 32.7911 -97.0106 99° East 200 230 5,900  Level Fort Worth Center
11:32AM 32.7781 -96.9167 92° East 261 300 8,900 2,700 Climbing Fort Worth Center
11:33AM 32.7756 -96.8131 92° East 288 331 11,300 2,520 Climbing Fort Worth Center
11:34AM 32.7708 -96.6797 92° East 346 398 14,000 2,580 Climbing Fort Worth Center
11:35AM 32.7678 -96.5611 92° East 383 441 16,500 2,700 Climbing Fort Worth Center
11:36AM 32.7615 -96.3493 95° East 427 491 20,400 2,820 Climbing FlightAware ADS-B
11:36AM 32.7603 -96.3333 99° East 428 493 20,700 2,520 Climbing FlightAware ADS-B
11:36AM 32.7547 -96.2912 133° Southeast 429 494 21,500 1,740 Climbing FlightAware ADS-B
11:37AM 32.7533 -96.2894 100° East 412 474 21,600 1,740 Climbing Fort Worth Center
11:39AM 32.7085 -95.9979 101° East 449 517 25,100 1,800 Climbing FlightAware ADS-B
11:39AM 32.6963 -95.9214 101° East 455 524 26,000 1,560 Climbing FlightAware ADS-B
11:40AM 32.6835 -95.8412 101° East 464 534 26,800 1,500 Climbing FlightAware ADS-B
11:40AM 32.6696 -95.7538 96° East 472 543 27,700 1,500 Climbing FlightAware ADS-B
11:41AM 32.6590 -95.6299 86° East 482 555 28,900 1,680 Climbing FlightAware ADS-B
11:42AM 32.6686 -95.4832 84° East 481 554 30,600 1,620 Climbing FlightAware ADS-B
11:43AM 32.6789 -95.3647 86° East 478 550 31,700 1,440 Climbing Fort Worth Center
11:44AM 32.6935 -95.1080 86° East 487 560 34,000 1,380 Climbing FlightAware ADS-B
11:45AM 32.6988 -95.0273 89° East 487 560 34,600 1,140 Climbing FlightAware ADS-B
11:46AM 32.7016 -94.8895 111° Southeast 492 566 35,600 1,020 Climbing FlightAware ADS-B
11:46AM 32.6788 -94.8207 124° Southeast 487 560 36,000 1,080 Climbing FlightAware ADS-B
11:47AM 32.6374 -94.7466 123° Southeast 486 559 36,700 1,140 Climbing FlightAware ADS-B
11:47AM 32.5895 -94.6602 123° Southeast 486 559 37,400 1,080 Climbing FlightAware ADS-B
11:48AM 32.5503 -94.5895 123° Southeast 482 555 38,000 1,020 Climbing FlightAware ADS-B
11:48AM 32.5125 -94.5215 123° Southeast 481 554 38,500 780 Climbing FlightAware ADS-B
11:49AM 32.4628 -94.4321 123° Southeast 480 552 39,000 420 Climbing FlightAware ADS-B
11:50AM 32.4259 -94.3645 123° Southeast 482 555 39,000  Level FlightAware ADS-B
11:50AM 32.3826 -94.2843 123° Southeast 483 556 39,000  Level FlightAware ADS-B
11:51AM 32.3457 -94.2166 124° Southeast 482 555 39,000  Level FlightAware ADS-B
11:51AM 32.3080 -94.1509 124° Southeast 482 555 39,000  Level FlightAware ADS-B
11:52AM 32.2705 -94.0857 124° Southeast 481 554 39,000  Level FlightAware ADS-B
11:52AM 32.2321 -94.0181 124° Southeast 481 554 39,000  Level FlightAware ADS-B
11:53AM 32.1888 -93.9417 124° Southeast 482 555 39,000  Level FlightAware ADS-B
11:53AM 32.1508 -93.8749 124° Southeast 480 552 39,000  Level FlightAware ADS-B
11:54AM 32.1127 -93.8079 124° Southeast 480 552 39,000  Level FlightAware ADS-B
11:54AM 32.0675 -93.7283 122° Southeast 479 551 39,000  Level FlightAware ADS-B
11:55AM 32.0533 -93.7013 116° Southeast 480 552 39,000  Level FlightAware ADS-B
11:55AM 32.0353 -93.6587 115° Southeast 481 554 39,000  Level FlightAware ADS-B
11:56AM 31.9935 -93.5507 119° Southeast 481 554 39,000  Level FlightAware ADS-B
11:56AM 31.9656 -93.4906 113° Southeast 473 544 39,000  Level Houston Center
11:57AM 31.9078 -93.3333 115° Southeast 480 552 39,000  Level FlightAware ADS-B
11:58AM 31.8699 -93.2370 115° Southeast 478 550 39,000  Level FlightAware ADS-B
11:58AM 31.8376 -93.1556 115° Southeast 478 550 39,000  Level FlightAware ADS-B
11:59AM 31.8076 -93.0802 115° Southeast 479 551 39,000  Level FlightAware ADS-B
11:59AM 31.7787 -93.0075 115° Southeast 479 551 39,000  Level FlightAware ADS-B
12:00PM 31.7319 -92.8903 115° Southeast 479 551 39,000  Level FlightAware ADS-B
12:01PM 31.6902 -92.7859 115° Southeast 477 549 39,000  Level FlightAware ADS-B
12:02PM 31.6621 -92.7159 117° Southeast 476 548 39,000 -120 Level FlightAware ADS-B
12:02PM 31.6364 -92.6556 115° Southeast 468 539 38,900  Descending Houston Center
12:03PM 31.5696 -92.4864 115° Southeast 476 548 39,000  Climbing FlightAware ADS-B
12:05PM 31.4924 -92.2958 116° Southeast 472 543 39,000  Level FlightAware ADS-B
12:05PM 31.4572 -92.2094 116° Southeast 469 540 39,000  Level FlightAware ADS-B
12:06PM 31.4048 -92.0809 116° Southeast 469 540 39,000  Level FlightAware ADS-B
12:07PM 31.3561 -91.9650 115° Southeast 473 544 39,000  Level Houston Center
12:08PM 31.3000 -91.8264 116° Southeast 473 544 39,000  Level Houston Center
12:09PM 31.2436 -91.6903 116° Southeast 468 539 39,000  Level Houston Center
12:10PM 31.1853 -91.5519 116° Southeast 468 539 39,000  Level Houston Center
12:11PM 31.1267 -91.4114 116° Southeast 468 539 39,000  Level Houston Center
12:12PM 31.0722 -91.2806 116° Southeast 468 539 39,000  Level Houston Center
12:13PM 31.0153 -91.1428 116° Southeast 468 539 39,000 -60 Level Houston Center
12:14PM 30.9583 -91.0072 116° Southeast 468 539 38,900  Descending Houston Center
12:15PM 30.9014 -90.8697 117° Southeast 468 539 39,000  Climbing Houston Center
12:16PM 30.8442 -90.7372 117° Southeast 468 539 38,900  Descending Houston Center
12:17PM 30.7847 -90.6025 116° Southeast 468 539 39,000  Climbing Houston Center
12:18PM 30.7272 -90.4678 116° Southeast 468 539 39,000  Level Houston Center
12:19PM 30.6717 -90.3331 117° Southeast 468 539 39,000  Level Houston Center
12:20PM 30.6139 -90.2011 117° Southeast 468 539 39,000  Level Houston Center
12:21PM 30.5561 -90.0669 116° Southeast 468 539 39,000  Level Houston Center
12:22PM 30.4981 -89.9306 116° Southeast 468 539 39,000  Level Houston Center
12:23PM 30.4356 -89.7822 116° Southeast 463 533 39,000  Level Houston Center
12:24PM 30.3750 -89.6414 117° Southeast 470 541 39,000  Level Houston Center
12:25PM 30.3144 -89.5056 117° Southeast 470 541 39,000  Level Houston Center
12:26PM 30.2561 -89.3722 118° Southeast 470 541 39,000 -60 Level Houston Center
12:27PM 30.1953 -89.2389 117° Southeast 470 541 38,900 -60 Descending Houston Center
12:28PM 30.1364 -89.1058 116° Southeast 470 541 38,900  Level Houston Center
12:29PM 30.0797 -88.9728 117° Southeast 465 535 39,000  Climbing Houston Center
12:30PM 30.0206 -88.8400 118° Southeast 465 535 39,000  Level Houston Center
12:34PM 29.7836 -88.3217 118° Southeast 451 519 39,000  Level Jacksonville Center
12:35PM 29.7244 -88.1917 117° Southeast 472 543 39,000  Level Jacksonville Center
12:36PM 29.6653 -88.0569 117° Southeast 467 537 39,000  Level Jacksonville Center
12:37PM 29.6078 -87.9275 118° Southeast 467 537 39,000  Level Jacksonville Center
12:38PM 29.5461 -87.7953 117° Southeast 467 537 39,000  Level Jacksonville Center
12:39PM 29.4864 -87.6636 118° Southeast 467 537 39,000  Level Jacksonville Center
12:40PM 29.4264 -87.5344 117° Southeast 467 537 39,000  Level Jacksonville Center
12:41PM 29.3764 -87.4225 118° Southeast 452 520 39,000  Level Jacksonville Center
12:42PM 29.3161 -87.2911 117° Southeast 452 520 39,000 -60 Level Jacksonville Center
12:43PM 29.2578 -87.1622 119° Southeast 458 527 38,900 -60 Descending Jacksonville Center
12:44PM 29.1956 -87.0311 119° Southeast 458 527 38,900  Level Jacksonville Center
12:45PM 29.1269 -86.8881 118° Southeast 465 535 39,000  Climbing Jacksonville Center
12:46PM 29.0664 -86.7575 118° Southeast 465 535 39,000  Level Jacksonville Center
12:47PM 29.0056 -86.6269 118° Southeast 465 535 39,000  Level Jacksonville Center
12:48PM 28.9444 -86.4964 119° Southeast 465 535 39,000  Level Jacksonville Center
12:49PM 28.8833 -86.3708 118° Southeast 460 529 39,000 -60 Level Jacksonville Center
12:50PM 28.8219 -86.2408 118° Southeast 465 535 38,900 -60 Descending Jacksonville Center
12:51PM 28.7606 -86.1111 119° Southeast 465 535 38,900  Level Jacksonville Center
12:52PM 28.6992 -85.9836 119° Southeast 465 535 38,900  Level Jacksonville Center
12:53PM 28.6394 -85.8611 119° Southeast 459 528 39,000  Climbing Jacksonville Center
12:56PM 28.4908 -85.5581 119° Southeast 475 547 39,000 -60 Level Miami Center
12:57PM 28.4317 -85.4358 118° Southeast 461 531 38,900 -60 Descending Miami Center
12:58PM 28.3725 -85.3086 119° Southeast 461 531 38,900  Level Miami Center
12:59PM 28.3131 -85.1889 119° Southeast 461 531 39,000  Climbing Miami Center
01:00PM 28.2514 -85.0644 119° Southeast 461 531 38,900  Descending Miami Center
01:01PM 28.1897 -84.9397 118° Southeast 461 531 39,000  Climbing Miami Center
01:02PM 28.1319 -84.8181 119° Southeast 456 525 39,000 -60 Level Miami Center
01:03PM 28.0719 -84.6964 120° Southeast 456 525 38,900  Descending Miami Center
01:04PM 28.0117 -84.5772 120° Southeast 450 518 39,000  Climbing Miami Center
01:05PM 27.9419 -84.4411 118° Southeast 450 518 39,000 -240 Level Miami Center
01:07PM 27.8275 -84.1942 121° Southeast 450 518 38,300 -540 Descending Miami Center
01:08PM 27.7628 -84.0728 119° Southeast 440 506 37,400 -960 Descending Miami Center
01:09PM 27.7042 -83.9519 118° Southeast 447 514 36,400 -960 Descending Miami Center
01:10PM 27.6475 -83.8314 120° Southeast 447 514 35,500 -720 Descending Miami Center
01:11PM 27.5864 -83.7131 119° Southeast 435 501 35,000 -300 Descending Miami Center
01:12PM 27.5275 -83.5925 119° Southeast 435 501 35,000  Level Miami Center
01:13PM 27.4683 -83.4744 120° Southeast 435 501 35,000 -420 Level Miami Center
01:14PM 27.4089 -83.3567 119° Southeast 435 501 34,200 -900 Descending Miami Center
01:15PM 27.3497 -83.2342 119° Southeast 435 501 33,200 -960 Descending Miami Center
01:16PM 27.2906 -83.1117 121° Southeast 435 501 32,300 -1,200 Descending Miami Center
01:17PM 27.2267 -82.9917 118° Southeast 435 501 30,900 -1,560 Descending Miami Center
01:18PM 27.1731 -82.8792 121° Southeast 444 511 29,200 -1,440 Descending Miami Center
01:19PM 27.1072 -82.7544 119° Southeast 454 522 28,100 -1,020 Descending Miami Center
01:20PM 27.0456 -82.6278 125° Southeast 454 522 27,200 -960 Descending Miami Center
01:21PM 26.9731 -82.5103 128° Southeast 459 528 26,200 -1,080 Descending Miami Center
01:22PM 26.8919 -82.3944 127° Southeast 466 536 25,100 -1,140 Descending Miami Center
01:23PM 26.8167 -82.2839 123° Southeast 460 529 24,000 -600 Descending Miami Center
01:24PM 26.7500 -82.1692 120° Southeast 453 521 23,900 -600 Descending Miami Center
01:25PM 26.6894 -82.0528 122° Southeast 443 510 22,900 -1,020 Descending Miami Center
01:26PM 26.6286 -81.9431 120° Southeast 433 498 21,900 -1,320 Descending Miami Center
01:27PM 26.5700 -81.8292 121° Southeast 422 486 20,300 -1,620 Descending Miami Center
01:28PM 26.5131 -81.7222 121° Southeast 417 480 18,700 -1,740 Descending Miami Center
01:29PM 26.4542 -81.6108 122° Southeast 399 459 16,900 -1,620 Descending Miami Center
01:30PM 26.4008 -81.5161 119° Southeast 378 435 15,500 -1,620 Descending Miami Center
01:31PM 26.3556 -81.4261 122° Southeast 356 410 13,700 -1,800 Descending Miami Center
01:32PM 26.3083 -81.3411 122° Southeast 334 384 11,900 -1,800 Descending Miami Center
01:33PM 26.2628 -81.2583 121° Southeast 321 369 10,200 -1,320 Descending Miami Center
01:34PM 26.2192 -81.1778 129° Southeast 311 358 9,300 -1,080 Descending Miami Center
01:34PM 26.1950 -81.1447 115° Southeast 294 338 8,600 -1,140 Descending Miami Center
01:35PM 26.1794 -81.1069 125° Southeast 297 342 8,200 -480 Descending Miami Center
01:35PM 26.1394 -81.0431 116° Southeast 267 307 8,000 -180 Descending Miami Center
01:37PM 26.1061 -80.9656 110° East 268 308 7,900 -420 Descending Miami Center
01:37PM 26.0850 -80.9003 94° East 263 303 7,200 -1,020 Descending Miami Center
01:39PM 26.0792 -80.8119 92° East 253 291 5,900 -600 Descending Miami Center
01:40PM 26.0767 -80.7450 86° East 209 241 6,000  Climbing Miami Center
01:41PM 26.0806 -80.6850 96° East 206 237 5,900  Descending Miami Center
01:42PM 26.0756 -80.6292 85° East 161 185 6,000  Climbing Miami Center
01:43PM 26.0789 -80.5856 92° East 161 185 5,900 -120 Descending Miami Center
01:44PM 26.0778 -80.5414 92° East 161 185 5,800 -780 Descending Miami Center
01:45PM 26.0753 -80.4767 91° East 156 180 4,200 -1,140 Descending Miami Center
01:46PM 26.0744 -80.4303 88° East 152 175 3,300 -840 Descending Miami Center
01:47PM 26.0756 -80.3842 88° East 140 161 2,600 -660 Descending Miami Center
01:48PM 26.0767 -80.3381 89° East 147 169 2,000 -420 Descending Miami Center
01:49PM 26.0775 -80.3008 89° East 128 147 1,800 -240 Descending Miami Center